X  Close Metar Aviation Weather Data     KGMU Greenville Downtown Airport
Temperature
32°F Temperature
28°F Dewpoint
87% Humidity



Wind
8 MPH
13 KM/H
4 M/S
7 KTS



220°
SW
Current Conditions

Mostly Cloudy Mostly Cloudy
Pressure 998.32 (hPa) - 29.48 (inHg)
Visibility 10 (mile) - 16.1 (km)
Airport
Airport-code KGMU

Location: Greenville Downtown Airport
Distance: 7 (mi)

Metar:
KGMU 170553Z AUTO 22007KT 10SM BKN008 00/M02 A2948 RMK AO2 SLP990 60000 T00001022 10000 21011 58010 $

Time: 01-17-2022 12:53 am EST